CYIO

Pond Inlet Airport

Pond Inlet, Canada
METAR CYIO 170200Z AUTO 00000KT 9SM CLR M30/M33 A2944 RMK SLP981
Observed Flight Rules
Dec-17 @ 02:00 UTC (22 minutes ago) Visual Flight Rules
Wind Visibility Clouds
Calm 9 miles
  • Clear skies
Temperatures Readings
Current -30°C / -22°F
Dewpoint -33°C / -27°F
Humidity 75%
Altimeter 29.44" Hg
Pressure 998.1 hPa
Elevation 57
METAR CYIO 170200Z AUTO 00000KT 9SM CLR M30/M33 A2944 RMK SLP981
Observed Flight Rules
Dec-17 @ 02:00 UTC
(22 minutes ago)
VFR
Wind Visibility
Calm 9 miles
Clouds
  • Clear skies
Temperature Dewpoint
-30°C / -22°F -33°C / -27°F
Humidity Altimeter Pressure
75% 29.44" Hg 998.1 hPa